Time;durP1;ratioP1;P1;durP2;ratioP2;P2;SDS_P1;SDS_P2;PMS_P1;PMS_P2;Temp;Humidity;BMP_temperature;BMP_pressure;BME280_temperature;BME280_humidity;BME280_pressure;Samples;Min_cycle;Max_cycle;Signal;HPM_P1;HPM_P2
2022/03/29 00:01:54;;;;;;;30.17;19.45;;;;;;;9.72;45.68;98721.84;4995528;28;20026;-67
2022/03/29 00:04:20;;;;;;;28.20;18.45;;;;;;;9.79;45.04;98741.09;4980991;28;20034;-67
2022/03/29 00:06:45;;;;;;;29.98;18.77;;;;;;;9.77;45.64;98738.66;4987427;28;20032;-65
2022/03/29 00:09:11;;;;;;;27.08;18.45;;;;;;;9.74;46.07;98735.50;4981865;28;20029;-65
2022/03/29 00:11:36;;;;;;;30.13;18.60;;;;;;;9.71;45.58;98730.56;4985473;28;20550;-67
2022/03/29 00:14:06;;;;;;;28.67;19.17;;;;;;;9.70;45.90;98721.16;4963748;28;20034;-67
2022/03/29 00:16:32;;;;;;;28.88;19.10;;;;;;;9.52;45.83;98713.22;4982147;28;20117;-66
2022/03/29 00:18:57;;;;;;;27.38;17.88;;;;;;;9.50;46.04;98723.72;4999606;28;20030;-66
2022/03/29 00:21:23;;;;;;;28.20;18.33;;;;;;;9.45;45.86;98709.50;4984603;28;20593;-68
2022/03/29 00:23:48;;;;;;;29.73;19.45;;;;;;;9.49;46.25;98726.44;4971366;28;20535;-66
2022/03/29 00:26:14;;;;;;;26.80;18.20;;;;;;;9.49;46.54;98724.69;4968595;28;20493;-68
2022/03/29 00:28:40;;;;;;;30.08;17.65;;;;;;;9.46;46.84;98721.56;4978314;28;20584;-66
2022/03/29 00:31:06;;;;;;;26.55;18.90;;;;;;;9.34;47.13;98706.06;4979614;28;20034;-66
2022/03/29 00:33:31;;;;;;;30.05;18.52;;;;;;;9.43;47.53;98715.66;4986300;28;20045;-68
2022/03/29 00:35:56;;;;;;;26.67;18.92;;;;;;;9.43;47.45;98712.25;4984781;28;20028;-67
2022/03/29 00:38:22;;;;;;;28.35;18.50;;;;;;;9.46;47.49;98708.56;4975803;28;20061;-66
2022/03/29 00:40:47;;;;;;;27.60;17.98;;;;;;;9.39;47.26;98703.09;4987655;28;20130;-66
2022/03/29 00:43:13;;;;;;;25.23;17.52;;;;;;;9.37;47.16;98711.00;4981407;28;20468;-67
2022/03/29 00:45:39;;;;;;;31.00;18.75;;;;;;;9.31;46.65;98706.38;4983417;28;20036;-66
2022/03/29 00:48:08;;;;;;;25.77;18.23;;;;;;;9.35;47.48;98706.91;4980113;28;20034;-66
2022/03/29 00:50:35;;;;;;;34.00;19.73;;;;;;;9.06;47.59;98650.59;4984160;28;20060;-67
2022/03/29 00:53:01;;;;;;;25.63;18.27;;;;;;;9.34;47.97;98700.06;5004305;28;20345;-67
2022/03/29 00:55:27;;;;;;;30.92;18.98;;;;;;;9.20;48.34;98694.31;4980986;28;20113;-64
2022/03/29 00:57:54;;;;;;;28.67;18.70;;;;;;;8.87;47.74;98633.25;4973518;28;20117;-66
2022/03/29 01:00:19;;;;;;;29.52;18.80;;;;;;;9.18;49.51;98693.66;4980522;28;20065;-66
2022/03/29 01:02:45;;;;;;;33.95;19.48;;;;;;;9.20;49.90;98683.13;4971173;28;20523;-66
2022/03/29 01:05:11;;;;;;;28.92;18.40;;;;;;;9.35;49.69;98689.56;5008501;28;20031;-67
2022/03/29 01:07:37;;;;;;;30.80;19.23;;;;;;;9.39;49.63;98687.53;4978002;28;20026;-66
2022/03/29 01:10:04;;;;;;;30.63;19.48;;;;;;;8.95;51.60;98624.78;4981580;28;20048;-67
2022/03/29 01:12:31;;;;;;;26.45;19.35;;;;;;;9.24;54.18;98668.94;4962630;28;20125;-66
2022/03/29 01:14:56;;;;;;;27.70;19.58;;;;;;;9.00;54.25;98626.03;4980447;28;20066;-66
2022/03/29 01:17:40;;;;;;;28.95;20.17;;;;;;;9.18;54.56;98653.88;4981979;28;20035;-66
2022/03/29 01:20:29;;;;;;;31.90;18.83;;;;;;;9.19;54.80;98658.94;4965601;28;20035;-65
2022/03/29 01:22:56;;;;;;;25.98;18.17;;;;;;;9.11;56.19;98634.63;4996470;28;20031;-67
2022/03/29 01:25:27;;;;;;;25.95;17.42;;;;;;;9.04;57.66;98605.84;4980377;28;20029;-66
2022/03/29 01:27:53;;;;;;;27.00;18.40;;;;;;;9.32;57.15;98648.31;4997637;28;20037;-68
2022/03/29 01:30:20;;;;;;;27.35;18.38;;;;;;;9.37;56.73;98638.34;4981296;28;20034;-67
2022/03/29 01:32:52;;;;;;;28.55;19.30;;;;;;;9.42;57.66;98636.16;4983482;28;20027;-67
2022/03/29 01:35:20;;;;;;;26.48;18.00;;;;;;;9.19;56.34;98604.47;4982076;28;20332;-66
2022/03/29 01:37:45;;;;;;;27.08;18.80;;;;;;;9.42;55.46;98633.56;4963681;28;20037;-66
2022/03/29 01:40:13;;;;;;;27.63;18.02;;;;;;;9.40;54.17;98619.91;4992551;28;20043;-66
2022/03/29 01:42:53;;;;;;;27.52;18.02;;;;;;;9.32;52.83;98606.78;4977189;28;20755;-68
2022/03/29 01:45:21;;;;;;;25.02;18.83;;;;;;;9.36;52.93;98592.59;4982472;28;20038;-67
2022/03/29 01:47:46;;;;;;;28.15;18.30;;;;;;;9.31;53.46;98588.75;4982814;28;20783;-66
2022/03/29 01:50:12;;;;;;;28.27;18.23;;;;;;;9.28;54.36;98589.06;4982471;28;20037;-67
2022/03/29 01:52:39;;;;;;;25.92;17.67;;;;;;;9.21;53.83;98583.59;4968887;28;20485;-67
2022/03/29 01:55:05;;;;;;;26.98;18.15;;;;;;;9.28;54.02;98589.06;4966303;28;20485;-67
2022/03/29 01:57:30;;;;;;;24.80;17.92;;;;;;;9.34;53.28;98580.72;4980292;28;20121;-67
2022/03/29 02:02:39;;;;;;;27.10;18.98;;;;;;;9.31;53.10;98579.22;4982447;28;20134;-66
2022/03/29 02:05:05;;;;;;;27.30;18.30;;;;;;;9.20;53.19;98574.19;4966016;28;20113;-67
2022/03/29 02:07:31;;;;;;;30.73;18.17;;;;;;;8.96;53.17;98570.22;4983730;28;20042;-68
2022/03/29 02:09:56;;;;;;;26.40;17.73;;;;;;;8.84;54.48;98532.38;4983037;28;20026;-66
2022/03/29 02:12:22;;;;;;;26.75;17.55;;;;;;;9.17;53.76;98566.66;4980939;28;20034;-65
2022/03/29 02:14:47;;;;;;;28.20;17.88;;;;;;;9.15;54.16;98559.00;4980858;28;20034;-65
2022/03/29 02:17:13;;;;;;;26.08;17.17;;;;;;;9.15;53.92;98561.59;4977981;28;20514;-67
2022/03/29 02:19:38;;;;;;;26.67;16.92;;;;;;;9.14;53.97;98562.53;4986396;28;20029;-67
2022/03/29 02:22:04;;;;;;;26.02;17.25;;;;;;;9.21;54.68;98562.81;4963742;28;20643;-65
2022/03/29 02:24:29;;;;;;;26.50;17.42;;;;;;;9.27;54.58;98556.28;4983451;28;20046;-64
2022/03/29 02:26:55;;;;;;;26.05;16.95;;;;;;;9.26;54.11;98563.25;4983697;28;20400;-66
2022/03/29 02:29:20;;;;;;;24.58;16.55;;;;;;;8.93;54.35;98516.00;4982170;28;20201;-64
2022/03/29 02:31:46;;;;;;;25.05;16.85;;;;;;;9.19;54.51;98547.41;4980551;28;20192;-66
2022/03/29 02:34:11;;;;;;;25.50;16.63;;;;;;;9.30;55.07;98551.63;4965556;28;22172;-65
2022/03/29 02:36:36;;;;;;;26.10;17.13;;;;;;;9.34;55.13;98549.56;4996837;28;20034;-67
2022/03/29 02:39:02;;;;;;;27.20;17.25;;;;;;;9.26;55.20;98536.47;4983039;28;20034;-65
2022/03/29 02:41:27;;;;;;;26.02;16.65;;;;;;;9.34;55.80;98541.78;4982217;28;20037;-65
2022/03/29 02:43:53;;;;;;;24.45;17.33;;;;;;;9.29;55.84;98533.59;4964761;28;20427;-65
2022/03/29 02:46:19;;;;;;;22.90;17.42;;;;;;;9.34;56.02;98532.22;4995315;28;20570;-65
2022/03/29 02:48:45;;;;;;;23.10;16.90;;;;;;;9.36;56.68;98527.72;4977967;28;20030;-66
2022/03/29 02:51:10;;;;;;;26.27;17.50;;;;;;;9.41;56.60;98530.72;4978044;28;20027;-65
2022/03/29 02:53:36;;;;;;;26.10;17.48;;;;;;;9.03;56.36;98470.16;4983913;28;20030;-67
2022/03/29 02:56:01;;;;;;;25.25;17.95;;;;;;;9.35;56.96;98526.09;4982518;28;20034;-67
2022/03/29 02:58:26;;;;;;;22.85;17.50;;;;;;;8.98;56.84;98469.75;4981532;28;20034;-66
2022/03/29 03:00:52;;;;;;;23.33;16.83;;;;;;;9.33;57.76;98522.81;4966072;28;20030;-66
2022/03/29 03:03:18;;;;;;;25.77;17.30;;;;;;;9.11;58.11;98479.00;4979194;28;20133;-66
2022/03/29 03:05:44;;;;;;;25.52;16.63;;;;;;;9.26;58.00;98508.75;4970581;28;20241;-65
2022/03/29 03:08:10;;;;;;;23.08;16.73;;;;;;;9.29;58.69;98508.50;4980375;28;20469;-65
2022/03/29 03:10:36;;;;;;;22.65;17.17;;;;;;;9.31;59.07;98510.91;4984516;28;20440;-65
2022/03/29 03:13:02;;;;;;;25.90;17.27;;;;;;;9.27;59.65;98518.16;4980422;28;20039;-64
2022/03/29 03:15:27;;;;;;;24.13;18.25;;;;;;;8.94;58.48;98454.59;4966568;28;20041;-66
2022/03/29 03:17:54;;;;;;;25.25;16.63;;;;;;;9.24;59.06;98501.09;4980209;28;20084;-67
2022/03/29 03:20:21;;;;;;;24.27;17.33;;;;;;;9.18;58.10;98500.81;4993546;28;20136;-67
2022/03/29 03:22:47;;;;;;;24.23;18.10;;;;;;;9.20;57.65;98491.16;4982837;28;21053;-67
2022/03/29 03:25:12;;;;;;;23.75;17.70;;;;;;;9.23;59.10;98498.66;4975892;28;20034;-66
2022/03/29 03:27:40;;;;;;;21.55;17.27;;;;;;;9.24;59.77;98490.72;4982073;28;20366;-66
2022/03/29 03:30:08;;;;;;;24.13;17.23;;;;;;;9.29;60.73;98492.06;4979820;28;20026;-66
2022/03/29 03:32:34;;;;;;;23.98;17.05;;;;;;;9.20;60.73;98480.78;4986165;28;20041;-65
2022/03/29 03:34:59;;;;;;;26.50;17.95;;;;;;;8.85;61.15;98425.09;4981991;28;20038;-67
2022/03/29 03:37:26;;;;;;;25.30;17.77;;;;;;;9.18;61.04;98496.47;4987231;28;20478;-65
2022/03/29 03:39:52;;;;;;;25.92;18.48;;;;;;;9.09;61.49;98489.53;4985400;28;20030;-66
2022/03/29 03:42:17;;;;;;;26.63;17.75;;;;;;;9.07;61.94;98485.41;4984669;28;20491;-65
2022/03/29 03:44:43;;;;;;;22.92;17.42;;;;;;;9.06;61.95;98479.44;4985003;28;20081;-65
2022/03/29 03:47:09;;;;;;;25.75;17.63;;;;;;;9.12;62.04;98478.84;4983024;28;20076;-66
2022/03/29 03:49:35;;;;;;;25.05;17.42;;;;;;;9.08;62.35;98468.91;4986631;28;20045;-66
2022/03/29 03:52:01;;;;;;;24.45;18.02;;;;;;;9.10;62.53;98477.38;4969354;28;20064;-66
2022/03/29 03:54:26;;;;;;;24.65;17.90;;;;;;;9.10;60.95;98472.19;4968480;28;20035;-66
2022/03/29 03:56:52;;;;;;;27.50;17.40;;;;;;;9.08;61.21;98472.31;4961221;28;20624;-66
2022/03/29 03:59:17;;;;;;;25.33;18.25;;;;;;;9.06;60.47;98476.81;4988077;28;20035;-66
2022/03/29 04:01:43;;;;;;;24.80;17.70;;;;;;;8.91;60.12;98468.66;4965993;28;20736;-66
2022/03/29 04:04:08;;;;;;;23.58;17.00;;;;;;;8.87;58.61;98458.69;4986632;28;20030;-67
2022/03/29 04:06:33;;;;;;;27.63;17.55;;;;;;;8.88;58.82;98471.50;4987210;28;20035;-66
2022/03/29 04:08:59;;;;;;;24.55;16.08;;;;;;;8.88;58.78;98452.56;4986764;28;20038;-65
2022/03/29 04:11:24;;;;;;;27.33;17.60;;;;;;;8.97;59.37;98462.09;4983142;28;20829;-67
2022/03/29 04:13:50;;;;;;;23.08;16.02;;;;;;;8.69;60.33;98414.47;4999875;28;20038;-67
2022/03/29 04:16:15;;;;;;;24.38;17.58;;;;;;;8.71;59.89;98407.41;4987887;28;20034;-68
2022/03/29 04:18:41;;;;;;;25.40;17.92;;;;;;;9.05;59.71;98462.22;4986836;28;20030;-67
2022/03/29 04:21:08;;;;;;;25.13;16.95;;;;;;;8.94;59.33;98457.19;4970716;28;20038;-64
2022/03/29 04:23:36;;;;;;;25.42;16.55;;;;;;;8.88;57.88;98444.78;4987369;28;20023;-66
2022/03/29 04:26:02;;;;;;;26.05;18.10;;;;;;;8.85;57.52;98454.47;4996880;28;20034;-67
2022/03/29 04:28:28;;;;;;;26.30;17.85;;;;;;;8.97;57.42;98456.91;4984768;28;20104;-67
2022/03/29 04:30:55;;;;;;;28.58;17.65;;;;;;;8.93;57.40;98453.78;4978498;28;20416;-66
2022/03/29 04:33:21;;;;;;;27.85;18.40;;;;;;;9.07;56.51;98459.47;4984796;28;20062;-66
2022/03/29 04:35:47;;;;;;;27.60;17.95;;;;;;;9.11;56.21;98466.03;4969735;28;20027;-66
2022/03/29 04:38:12;;;;;;;25.52;17.80;;;;;;;9.08;55.53;98458.53;4983322;28;20725;-66
2022/03/29 04:40:38;;;;;;;26.92;18.17;;;;;;;8.88;55.55;98465.53;4982497;28;20465;-67
2022/03/29 04:43:03;;;;;;;31.60;18.15;;;;;;;8.84;55.85;98472.75;4981447;28;20207;-65
2022/03/29 04:45:29;;;;;;;30.85;18.75;;;;;;;8.74;56.33;98470.13;4958409;28;20046;-67
2022/03/29 04:47:54;;;;;;;28.80;18.95;;;;;;;8.77;55.87;98461.28;4985874;28;20381;-67
2022/03/29 04:50:20;;;;;;;30.33;18.95;;;;;;;8.58;54.92;98465.53;4984660;28;20037;-65
2022/03/29 04:52:46;;;;;;;27.77;19.48;;;;;;;8.23;55.35;98417.59;4961100;28;20026;-68
2022/03/29 04:55:13;;;;;;;29.58;19.60;;;;;;;8.54;54.97;98473.69;4980279;28;20030;-67
2022/03/29 04:57:41;;;;;;;33.88;19.92;;;;;;;8.41;54.65;98460.97;4980088;28;20062;-67
2022/03/29 05:00:08;;;;;;;30.92;20.38;;;;;;;8.48;54.60;98472.44;4966463;28;20038;-67
2022/03/29 05:02:35;;;;;;;31.83;19.73;;;;;;;8.28;54.63;98472.38;4984382;28;20493;-67
2022/03/29 05:05:01;;;;;;;38.80;20.13;;;;;;;8.32;53.79;98475.53;4980707;28;20030;-67
2022/03/29 05:07:28;;;;;;;32.80;19.70;;;;;;;8.33;52.60;98474.59;4985048;28;20034;-66
2022/03/29 05:09:54;;;;;;;32.30;20.50;;;;;;;8.33;53.86;98479.78;4982974;28;20118;-68
2022/03/29 05:12:19;;;;;;;32.70;19.55;;;;;;;8.16;53.06;98449.31;4982439;28;20142;-65
2022/03/29 05:14:45;;;;;;;32.38;19.67;;;;;;;8.05;52.63;98429.56;4966153;28;20034;-65
2022/03/29 05:17:10;;;;;;;33.88;19.27;;;;;;;8.25;52.97;98490.81;5002194;28;20034;-67
2022/03/29 05:19:36;;;;;;;34.17;21.05;;;;;;;8.14;53.10;98483.16;4970747;28;20113;-66
2022/03/29 05:22:02;;;;;;;33.00;20.70;;;;;;;8.25;53.03;98483.03;4963756;28;20073;-67
2022/03/29 05:24:27;;;;;;;38.22;21.02;;;;;;;7.98;52.88;98433.63;4984117;28;20053;-66
2022/03/29 05:26:53;;;;;;;36.33;20.17;;;;;;;8.37;53.05;98481.13;4973100;28;20034;-66
2022/03/29 05:29:19;;;;;;;35.05;19.60;;;;;;;8.31;54.35;98470.50;4965940;28;20030;-65
2022/03/29 05:31:44;;;;;;;39.72;20.13;;;;;;;8.31;53.19;98475.69;4960910;28;20030;-67
2022/03/29 05:34:10;;;;;;;45.40;21.42;;;;;;;8.19;52.70;98473.19;4981875;28;20023;-66
2022/03/29 05:36:36;;;;;;;41.88;21.45;;;;;;;8.20;52.64;98461.06;4975695;28;20121;-66
2022/03/29 05:39:03;;;;;;;52.22;23.15;;;;;;;8.42;52.46;98488.56;4983588;28;20377;-66
2022/03/29 05:41:29;;;;;;;46.78;22.63;;;;;;;8.20;52.00;98443.75;4980500;28;20211;-67
2022/03/29 05:43:54;;;;;;;40.03;23.00;;;;;;;8.48;52.43;98479.41;4982245;28;20058;-66
2022/03/29 05:49:04;;;;;;;45.03;21.63;;;;;;;8.46;52.52;98482.13;4979389;28;20037;-67
2022/03/29 05:51:30;;;;;;;41.95;22.15;;;;;;;8.44;52.85;98486.63;4981712;28;20405;-66
2022/03/29 05:54:00;;;;;;;40.60;22.60;;;;;;;8.41;52.96;98490.25;4994370;28;20031;-66
2022/03/29 05:56:26;;;;;;;38.17;21.33;;;;;;;8.41;53.02;98489.47;5008611;28;20037;-67
2022/03/29 05:58:52;;;;;;;33.97;20.88;;;;;;;8.45;51.91;98494.28;4955727;28;20029;-67
2022/03/29 06:01:19;;;;;;;42.15;20.60;;;;;;;8.50;52.77;98490.47;5006898;28;20042;-66
2022/03/29 06:03:45;;;;;;;37.55;19.52;;;;;;;8.45;53.13;98494.28;4999775;28;20097;-66
2022/03/29 06:06:10;;;;;;;39.83;21.02;;;;;;;8.53;52.95;98508.34;4982922;28;20109;-65
2022/03/29 06:08:35;;;;;;;37.55;20.73;;;;;;;8.52;52.70;98502.31;4980955;28;20680;-66
2022/03/29 06:11:04;;;;;;;35.95;20.45;;;;;;;8.26;53.00;98458.75;4961090;28;20442;-66
2022/03/29 06:13:30;;;;;;;40.83;20.30;;;;;;;8.52;53.83;98502.31;4962015;28;20045;-65
2022/03/29 06:15:55;;;;;;;35.35;20.60;;;;;;;8.55;53.07;98509.03;4981823;28;20065;-66
2022/03/29 06:18:21;;;;;;;43.30;21.02;;;;;;;8.53;53.08;98506.56;4982950;28;20065;-65
2022/03/29 06:20:47;;;;;;;35.92;20.90;;;;;;;8.46;53.49;98497.69;4971213;28;20062;-66
2022/03/29 06:23:12;;;;;;;43.40;20.52;;;;;;;8.56;52.75;98513.25;4998155;28;20030;-67
2022/03/29 06:25:38;;;;;;;41.85;21.15;;;;;;;8.59;52.48;98511.19;4981658;28;20030;-66
2022/03/29 06:28:04;;;;;;;41.88;21.55;;;;;;;8.65;52.35;98509.84;4975943;28;20034;-67
2022/03/29 06:30:29;;;;;;;35.13;21.08;;;;;;;8.65;51.79;98504.66;5003223;28;20034;-66
2022/03/29 06:32:55;;;;;;;40.33;20.98;;;;;;;8.69;51.49;98518.16;5006605;28;20437;-64
2022/03/29 06:35:22;;;;;;;36.28;21.27;;;;;;;8.68;52.00;98506.97;4982136;28;20045;-66
2022/03/29 06:37:49;;;;;;;44.38;21.70;;;;;;;8.76;51.92;98514.09;4982772;28;20022;-64
2022/03/29 06:40:15;;;;;;;39.53;21.13;;;;;;;8.77;53.83;98520.91;4983110;28;20634;-67
2022/03/29 06:42:40;;;;;;;40.30;21.58;;;;;;;8.46;53.15;98461.41;4976833;28;20988;-66
2022/03/29 06:45:08;;;;;;;41.20;21.13;;;;;;;8.65;53.82;98508.09;4995420;28;20624;-66
2022/03/29 06:47:33;;;;;;;41.08;21.33;;;;;;;8.63;53.67;98494.44;4981222;28;20834;-67
2022/03/29 06:49:59;;;;;;;37.58;21.90;;;;;;;8.68;53.33;98503.59;4960013;28;20030;-67
2022/03/29 06:52:26;;;;;;;40.55;22.90;;;;;;;8.75;53.45;98494.31;4982754;28;20026;-66
2022/03/29 06:54:52;;;;;;;39.67;21.10;;;;;;;8.82;52.27;98510.97;4981789;28;20384;-67
2022/03/29 06:57:18;;;;;;;43.20;21.08;;;;;;;8.82;51.98;98504.00;4990027;28;20027;-67
2022/03/29 06:59:43;;;;;;;38.47;20.77;;;;;;;8.85;53.03;98498.53;4966236;28;20046;-67
2022/03/29 07:02:09;;;;;;;36.80;21.08;;;;;;;8.90;52.20;98494.72;4955278;28;20566;-65
2022/03/29 07:04:34;;;;;;;37.78;21.08;;;;;;;8.98;53.52;98493.09;4995542;28;20023;-67
2022/03/29 07:07:00;;;;;;;43.03;20.58;;;;;;;9.03;52.23;98498.69;4982764;28;20038;-66
2022/03/29 07:12:09;;;;;;;34.05;20.17;;;;;;;9.08;50.13;98489.66;4980351;28;20093;-65
2022/03/29 07:14:35;;;;;;;36.17;22.00;;;;;;;9.14;50.39;98489.91;4962455;28;20404;-64
2022/03/29 07:17:00;;;;;;;38.92;21.83;;;;;;;9.12;51.16;98481.44;4996478;28;20022;-65
2022/03/29 07:19:27;;;;;;;35.88;20.00;;;;;;;9.02;50.38;98488.44;4980557;28;20030;-63
2022/03/29 07:21:53;;;;;;;34.90;20.77;;;;;;;8.95;50.57;98462.22;4978132;28;20073;-64
2022/03/29 07:24:18;;;;;;;39.35;22.77;;;;;;;9.14;51.43;98482.13;4983306;28;20537;-64
2022/03/29 07:26:44;;;;;;;32.88;21.05;;;;;;;9.29;51.10;98485.13;5000022;28;20170;-64
2022/03/29 07:29:09;;;;;;;34.45;20.30;;;;;;;9.39;50.63;98490.28;4982941;28;20042;-65
2022/03/29 07:31:36;;;;;;;39.13;21.15;;;;;;;9.45;49.09;98488.91;5000032;28;20547;-65
2022/03/29 07:34:03;;;;;;;35.53;21.33;;;;;;;9.50;49.74;98490.13;4964608;28;20061;-64
2022/03/29 07:36:28;;;;;;;38.72;21.45;;;;;;;9.42;50.07;98464.88;4979369;28;20030;-64
2022/03/29 07:38:54;;;;;;;40.67;22.15;;;;;;;9.40;49.97;98486.72;4968103;28;20033;-65
2022/03/29 07:41:19;;;;;;;44.28;22.52;;;;;;;9.55;49.79;98481.94;4986205;28;20079;-65
2022/03/29 07:43:45;;;;;;;36.50;21.73;;;;;;;9.65;50.86;98479.28;5018339;28;20488;-64
2022/03/29 07:46:10;;;;;;;37.97;21.08;;;;;;;9.39;49.74;98438.41;4969405;28;20035;-66
2022/03/29 07:48:36;;;;;;;33.42;20.42;;;;;;;9.65;50.19;98474.09;4982015;28;20041;-66
2022/03/29 07:51:01;;;;;;;36.33;22.35;;;;;;;9.62;51.18;98476.03;4998632;28;20109;-64
2022/03/29 07:53:27;;;;;;;36.55;21.83;;;;;;;9.76;52.15;98479.91;4983819;28;20030;-64
2022/03/29 07:55:54;;;;;;;37.53;22.33;;;;;;;9.79;52.84;98482.25;4983879;28;20078;-65
2022/03/29 07:58:20;;;;;;;39.72;21.95;;;;;;;9.70;53.02;98479.69;4979886;28;20391;-65
2022/03/29 08:00:49;;;;;;;30.92;22.27;;;;;;;9.75;51.81;98480.91;5011482;28;20066;-65
2022/03/29 08:03:16;;;;;;;33.25;20.48;;;;;;;9.63;49.34;98459.47;4999803;28;20101;-66
2022/03/29 08:05:43;;;;;;;35.20;21.30;;;;;;;9.77;49.73;98460.78;4952290;28;20019;-65
2022/03/29 08:08:13;;;;;;;35.72;21.77;;;;;;;9.76;49.78;98446.16;5016623;28;20153;-64
2022/03/29 08:10:39;;;;;;;39.15;23.92;;;;;;;10.03;49.35;98460.13;4979306;28;20033;-66
2022/03/29 08:13:07;;;;;;;36.78;23.00;;;;;;;10.06;48.91;98430.44;4978712;28;20056;-65
2022/03/29 08:15:33;;;;;;;38.58;23.17;;;;;;;10.35;48.76;98462.31;4986095;28;20038;-65
2022/03/29 08:17:59;;;;;;;46.58;25.00;;;;;;;10.39;48.94;98462.84;4964425;28;20031;-65
2022/03/29 08:20:25;;;;;;;36.47;22.95;;;;;;;10.44;49.03;98450.22;4994317;28;20515;-64
2022/03/29 08:22:52;;;;;;;35.45;22.63;;;;;;;10.54;49.40;98450.13;4979618;28;20088;-64
2022/03/29 08:25:18;;;;;;;41.13;24.65;;;;;;;10.53;50.09;98444.13;5012090;28;20531;-64
2022/03/29 08:27:45;;;;;;;38.22;24.30;;;;;;;10.70;49.31;98452.88;5013229;28;20121;-64
2022/03/29 08:30:11;;;;;;;39.67;24.08;;;;;;;10.54;48.86;98404.16;4981075;28;20022;-66
2022/03/29 08:32:37;;;;;;;40.80;24.50;;;;;;;10.84;49.84;98446.34;4978909;28;20022;-65
2022/03/29 08:35:04;;;;;;;39.65;23.75;;;;;;;10.92;49.53;98443.78;5000925;28;20095;-65
2022/03/29 08:37:30;;;;;;;37.33;25.10;;;;;;;11.00;49.43;98434.41;4996958;28;20776;-65
2022/03/29 08:39:55;;;;;;;43.30;23.55;;;;;;;11.12;49.63;98447.03;4983413;28;20033;-67
2022/03/29 08:42:23;;;;;;;43.40;23.38;;;;;;;11.21;48.87;98434.06;4982880;28;20026;-65
2022/03/29 08:44:48;;;;;;;39.42;24.17;;;;;;;11.25;48.25;98428.41;4996618;28;20030;-65
2022/03/29 08:47:15;;;;;;;37.67;24.52;;;;;;;11.39;48.49;98434.84;4998797;28;20469;-65
2022/03/29 08:49:41;;;;;;;41.63;23.45;;;;;;;11.45;48.03;98434.22;4962382;28;20114;-65
2022/03/29 08:52:07;;;;;;;40.67;24.35;;;;;;;11.54;48.78;98448.09;4997622;28;20528;-65
2022/03/29 08:54:33;;;;;;;34.42;23.17;;;;;;;11.68;46.86;98437.09;4982136;28;20129;-66
2022/03/29 08:57:02;;;;;;;40.30;24.88;;;;;;;11.73;47.15;98432.22;4963240;28;20448;-66
2022/03/29 08:59:27;;;;;;;37.95;23.27;;;;;;;11.71;46.58;98433.38;4984144;28;20401;-65
2022/03/29 09:01:55;;;;;;;37.47;22.88;;;;;;;11.83;47.11;98437.34;4961761;28;20025;-65
2022/03/29 09:04:23;;;;;;;38.40;22.75;;;;;;;11.61;45.74;98384.03;4963142;28;20436;-66
2022/03/29 09:07:00;;;;;;;40.85;24.02;;;;;;;12.01;45.69;98432.06;4977612;28;20034;-66
2022/03/29 09:09:32;;;;;;;37.17;22.65;;;;;;;12.05;44.38;98422.94;4972915;28;20113;-65
2022/03/29 09:12:08;;;;;;;37.03;22.75;;;;;;;12.09;44.74;98420.84;4982373;28;20421;-65
2022/03/29 09:14:52;;;;;;;35.45;22.85;;;;;;;12.17;44.53;98423.44;4968145;28;20023;-65
2022/03/29 09:17:32;;;;;;;36.47;22.98;;;;;;;12.19;44.82;98412.88;4978637;28;20512;-65
2022/03/29 09:20:09;;;;;;;35.65;22.45;;;;;;;12.35;45.09;98409.47;4998578;28;20307;-65
2022/03/29 09:22:50;;;;;;;36.33;23.05;;;;;;;12.32;44.73;98410.63;4982242;28;20025;-66
2022/03/29 09:25:23;;;;;;;36.20;23.02;;;;;;;12.38;44.43;98414.38;4982993;28;20050;-65
2022/03/29 09:28:03;;;;;;;38.70;23.77;;;;;;;12.45;44.22;98397.94;4981008;28;20038;-65
2022/03/29 09:30:41;;;;;;;39.35;23.45;;;;;;;12.59;44.38;98408.69;4973644;28;20156;-65
2022/03/29 09:33:11;;;;;;;36.05;24.02;;;;;;;12.66;44.16;98404.44;4966560;28;20073;-65
2022/03/29 09:35:52;;;;;;;33.40;22.65;;;;;;;12.72;44.54;98398.56;4976513;28;20357;-65
2022/03/29 09:38:30;;;;;;;34.00;23.02;;;;;;;12.92;43.91;98393.03;4982310;28;20045;-66
2022/03/29 09:40:56;;;;;;;35.63;22.75;;;;;;;12.96;43.57;98394.31;5004391;28;20034;-66
2022/03/29 09:43:26;;;;;;;32.78;22.80;;;;;;;12.98;42.97;98392.38;5002058;28;20111;-64
2022/03/29 09:45:55;;;;;;;32.60;23.45;;;;;;;12.94;42.78;98357.97;4980410;28;20022;-64
2022/03/29 09:48:44;;;;;;;37.15;22.65;;;;;;;13.13;43.42;98389.91;4983694;28;20069;-65
2022/03/29 09:51:10;;;;;;;35.35;22.98;;;;;;;13.23;42.93;98374.84;4991145;28;20037;-65
2022/03/29 09:53:47;;;;;;;36.97;22.40;;;;;;;13.33;42.42;98377.31;4984755;28;20034;-64
2022/03/29 09:56:19;;;;;;;32.88;22.35;;;;;;;13.39;41.83;98360.97;4984472;28;20252;-63
2022/03/29 09:58:45;;;;;;;34.15;22.58;;;;;;;13.50;41.19;98350.16;4962777;28;20548;-65
2022/03/29 10:01:24;;;;;;;37.33;23.95;;;;;;;13.53;40.87;98344.59;4943152;28;20245;-66
2022/03/29 10:03:54;;;;;;;38.08;23.92;;;;;;;13.57;41.02;98332.00;4975571;28;20117;-65
2022/03/29 10:06:23;;;;;;;31.63;22.25;;;;;;;13.05;40.71;98245.38;4996414;28;20069;-64
2022/03/29 10:11:36;;;;;;;33.22;22.48;;;;;;;13.69;40.33;98293.25;4981910;28;20053;-67
2022/03/29 10:14:02;;;;;;;34.63;22.90;;;;;;;13.94;39.75;98309.59;4954534;28;20030;-66
2022/03/29 10:16:28;;;;;;;35.30;21.70;;;;;;;14.06;39.18;98315.25;4976602;28;20037;-64
2022/03/29 10:18:54;;;;;;;31.50;21.58;;;;;;;14.00;37.79;98301.03;4985848;28;20442;-65
2022/03/29 10:21:20;;;;;;;32.20;21.27;;;;;;;13.76;37.80;98247.16;4983694;28;20084;-65
2022/03/29 10:23:48;;;;;;;33.83;22.35;;;;;;;14.14;38.91;98289.81;4979552;28;20026;-66
2022/03/29 10:26:19;;;;;;;33.80;23.02;;;;;;;14.16;39.19;98285.22;4981513;28;20034;-67
2022/03/29 10:28:46;;;;;;;32.45;21.83;;;;;;;14.07;38.54;98262.75;4963909;28;20053;-67
2022/03/29 10:31:29;;;;;;;36.80;23.98;;;;;;;14.20;38.78;98280.47;4980534;28;20034;-66
2022/03/29 10:34:18;;;;;;;32.25;22.60;;;;;;;14.00;38.75;98238.31;4985795;28;20026;-65
2022/03/29 10:37:12;;;;;;;33.50;23.02;;;;;;;14.24;38.55;98263.47;5016010;28;20034;-66
2022/03/29 10:40:03;;;;;;;35.10;23.00;;;;;;;14.28;38.31;98261.31;4997137;28;20109;-64
2022/03/29 10:42:42;;;;;;;35.67;23.13;;;;;;;14.29;37.74;98258.53;4978703;28;20034;-65
2022/03/29 10:45:22;;;;;;;30.77;22.97;;;;;;;14.26;37.43;98264.09;4986214;28;20029;-64
2022/03/29 10:47:56;;;;;;;35.90;22.88;;;;;;;14.31;38.58;98250.47;4973533;28;20048;-65
2022/03/29 10:50:21;;;;;;;36.33;23.52;;;;;;;14.29;39.35;98237.59;4923831;28;20037;-65
2022/03/29 10:52:49;;;;;;;36.20;24.58;;;;;;;14.37;38.44;98237.50;4977835;28;20346;-67
2022/03/29 10:55:19;;;;;;;34.45;23.23;;;;;;;14.53;37.59;98233.94;4992205;28;20251;-65
2022/03/29 10:58:12;;;;;;;32.53;23.92;;;;;;;14.76;36.48;98235.66;4966906;28;20033;-65
2022/03/29 11:00:43;;;;;;;34.80;22.10;;;;;;;14.81;35.61;98222.88;4980723;28;20680;-65
2022/03/29 11:03:20;;;;;;;31.73;22.58;;;;;;;15.01;35.13;98224.94;4978874;28;20129;-66
2022/03/29 11:06:11;;;;;;;35.33;23.88;;;;;;;15.12;35.60;98214.78;4985280;28;20042;-66
2022/03/29 11:08:38;;;;;;;33.58;23.50;;;;;;;15.21;35.86;98217.31;4976332;28;20018;-67
2022/03/29 11:11:05;;;;;;;37.90;25.27;;;;;;;15.11;35.08;98213.19;4982944;28;20121;-64
2022/03/29 11:13:38;;;;;;;36.35;23.92;;;;;;;15.20;34.04;98219.09;4976687;28;20093;-67
2022/03/29 11:16:30;;;;;;;34.42;23.33;;;;;;;15.25;33.80;98213.31;4977615;28;20034;-66
2022/03/29 11:18:57;;;;;;;37.22;25.02;;;;;;;15.01;34.34;98164.72;4972664;28;20060;-65
2022/03/29 11:21:30;;;;;;;36.42;25.52;;;;;;;15.24;35.79;98196.81;4984938;28;20592;-64
2022/03/29 11:23:58;;;;;;;37.17;25.13;;;;;;;15.32;35.35;98190.63;5000617;28;20034;-65
2022/03/29 11:26:23;;;;;;;39.00;25.48;;;;;;;15.51;35.30;98184.78;4985519;28;20121;-65
2022/03/29 11:28:54;;;;;;;40.33;27.17;;;;;;;15.56;34.15;98177.16;4969853;28;20546;-65
2022/03/29 11:31:21;;;;;;;40.63;26.58;;;;;;;15.63;34.36;98184.31;4971068;28;20072;-65
2022/03/29 11:33:49;;;;;;;37.42;25.10;;;;;;;15.63;33.34;98179.84;4990064;28;20018;-66
2022/03/29 11:36:16;;;;;;;39.67;26.52;;;;;;;15.73;32.27;98166.44;4988193;28;20030;-66